createdAt,value
2018-02-22T00:00:36.734Z,28.85
2018-02-22T00:03:04.870Z,26.85
2018-02-22T00:05:33.795Z,27.00
2018-02-22T00:08:01.926Z,28.50
2018-02-22T00:10:30.874Z,25.50
2018-02-22T00:12:59.013Z,22.35
2018-02-22T00:15:27.234Z,24.25
2018-02-22T00:17:55.365Z,24.25
2018-02-22T00:20:23.602Z,28.48
2018-02-22T00:22:51.747Z,31.50
2018-02-22T00:25:19.919Z,27.13
2018-02-22T00:27:48.058Z,23.60
2018-02-22T00:30:16.193Z,24.08
2018-02-22T00:32:44.359Z,25.73
2018-02-22T00:35:12.495Z,31.92
2018-02-22T00:37:40.650Z,25.25
2018-02-22T00:40:08.806Z,29.20
2018-02-22T00:42:37.822Z,26.00
2018-02-22T00:45:06.000Z,29.05
2018-02-22T00:47:34.138Z,33.97
2018-02-22T00:50:03.068Z,29.45
2018-02-22T00:52:31.201Z,24.23
2018-02-22T00:55:00.131Z,24.20
2018-02-22T00:57:28.272Z,27.85
2018-02-22T00:59:57.090Z,27.30
2018-02-22T01:02:25.259Z,26.20
2018-02-22T01:04:53.402Z,25.52
2018-02-22T01:07:22.430Z,28.20
2018-02-22T01:09:50.917Z,27.77
2018-02-22T01:12:19.083Z,29.10
2018-02-22T01:14:47.250Z,27.08
2018-02-22T01:17:15.410Z,25.80
2018-02-22T01:19:43.546Z,28.90
2018-02-22T01:22:11.766Z,27.92
2018-02-22T01:24:40.050Z,28.90
2018-02-22T01:27:08.221Z,24.70
2018-02-22T01:29:36.514Z,26.80
2018-02-22T01:32:04.766Z,30.05
2018-02-22T01:34:32.907Z,28.55
2018-02-22T01:37:01.861Z,24.92
2018-02-22T01:39:29.991Z,25.20
2018-02-22T01:41:58.141Z,27.25
2018-02-22T01:44:27.070Z,28.10
2018-02-22T01:46:55.237Z,26.55
2018-02-22T01:49:23.398Z,28.15
2018-02-22T01:51:51.542Z,29.15
2018-02-22T01:54:20.462Z,25.48
2018-02-22T01:56:48.599Z,29.63
2018-02-22T01:59:17.526Z,32.58
2018-02-22T02:01:45.694Z,25.12
2018-02-22T02:04:13.826Z,28.98
2018-02-22T02:06:41.970Z,28.45
2018-02-22T02:09:10.139Z,33.15
2018-02-22T02:11:38.273Z,32.72
2018-02-22T02:14:06.473Z,27.20
2018-02-22T02:16:34.623Z,27.23
2018-02-22T02:19:02.786Z,27.58
2018-02-22T02:21:31.817Z,25.48
2018-02-22T02:23:59.960Z,27.80
2018-02-22T02:26:28.110Z,29.33
2018-02-22T02:28:57.048Z,25.95
2018-02-22T02:31:25.205Z,28.00
2018-02-22T02:33:53.333Z,22.90
2018-02-22T02:36:21.474Z,31.60
2018-02-22T02:38:49.643Z,23.12
2018-02-22T02:41:17.804Z,27.55
2018-02-22T02:43:45.982Z,24.73
2018-02-22T02:46:14.122Z,31.35
2018-02-22T02:48:43.051Z,28.80
2018-02-22T02:51:11.183Z,28.67
2018-02-22T02:53:39.388Z,26.23
2018-02-22T02:56:07.543Z,36.55
2018-02-22T02:58:35.738Z,29.02
2018-02-22T03:01:03.904Z,31.17
2018-02-22T03:03:32.042Z,28.33
2018-02-22T03:06:00.969Z,23.98
2018-02-22T03:08:29.115Z,23.90
2018-02-22T03:10:57.723Z,26.00
2018-02-22T03:13:25.898Z,26.33
2018-02-22T03:15:54.074Z,30.30
2018-02-22T03:18:22.216Z,25.50
2018-02-22T03:20:50.369Z,29.17
2018-02-22T03:23:19.269Z,29.65
2018-02-22T03:25:48.205Z,28.62
2018-02-22T03:28:16.763Z,30.45
2018-02-22T03:30:44.903Z,28.15
2018-02-22T03:33:13.938Z,25.83
2018-02-22T03:35:42.070Z,26.12
2018-02-22T03:38:10.233Z,23.15
2018-02-22T03:40:38.390Z,31.77
2018-02-22T03:43:06.527Z,26.25
2018-02-22T03:45:34.701Z,27.62
2018-02-22T03:48:02.878Z,29.12
2018-02-22T03:50:31.026Z,30.05
2018-02-22T03:52:59.191Z,31.10
2018-02-22T03:55:28.578Z,27.67
2018-02-22T03:57:57.492Z,31.50
2018-02-22T04:00:25.631Z,29.35
2018-02-22T04:02:53.802Z,26.52
2018-02-22T04:05:21.966Z,27.08
2018-02-22T04:07:50.099Z,35.45
2018-02-22T04:10:18.259Z,35.05
2018-02-22T04:12:46.454Z,33.35
2018-02-22T04:15:14.606Z,32.65
2018-02-22T04:17:42.765Z,28.08
2018-02-22T04:20:11.674Z,31.10
2018-02-22T04:22:39.804Z,28.25
2018-02-22T04:25:07.965Z,29.15
2018-02-22T04:27:36.142Z,33.80
2018-02-22T04:30:04.277Z,32.78
2018-02-22T04:32:32.417Z,33.17
2018-02-22T04:35:01.200Z,37.60
2018-02-22T04:37:30.122Z,35.80
2018-02-22T04:39:58.298Z,35.25
2018-02-22T04:42:26.482Z,28.35
2018-02-22T04:44:54.623Z,32.33
2018-02-22T04:47:22.757Z,34.92
2018-02-22T04:49:50.994Z,34.08
2018-02-22T04:52:19.162Z,33.35
2018-02-22T04:54:47.322Z,34.58
2018-02-22T04:57:15.455Z,36.33
2018-02-22T04:59:44.457Z,34.47
2018-02-22T05:02:13.371Z,31.98
2018-02-22T05:04:41.534Z,36.28
2018-02-22T05:07:09.669Z,29.05
2018-02-22T05:09:37.826Z,33.58
2018-02-22T05:12:06.082Z,33.28
2018-02-22T05:14:34.228Z,34.33
2018-02-22T05:17:03.143Z,35.80
2018-02-22T05:19:31.287Z,32.25
2018-02-22T05:21:59.445Z,36.10
2018-02-22T05:24:28.373Z,39.05
2018-02-22T05:26:56.560Z,31.27
2018-02-22T05:29:24.741Z,30.92
2018-02-22T05:31:53.000Z,39.75
2018-02-22T05:34:21.230Z,39.70
2018-02-22T05:36:49.433Z,34.90
2018-02-22T05:39:17.603Z,37.55
2018-02-22T05:41:45.794Z,34.75
2018-02-22T05:44:13.960Z,35.88
2018-02-22T05:46:42.102Z,42.35
2018-02-22T05:49:11.045Z,52.97
2018-02-22T05:51:39.186Z,39.78
2018-02-22T05:54:07.326Z,26.65
2018-02-22T05:56:36.625Z,42.78
2018-02-22T05:59:05.550Z,38.63
2018-02-22T06:01:33.693Z,31.80
2018-02-22T06:04:02.631Z,37.88
2018-02-22T06:06:30.794Z,28.73
2018-02-22T06:08:58.964Z,38.75
2018-02-22T06:11:27.135Z,39.25
2018-02-22T06:13:55.282Z,38.45
2018-02-22T06:16:24.224Z,38.90
2018-02-22T06:18:52.403Z,39.08
2018-02-22T06:21:20.542Z,42.10
2018-02-22T06:23:48.695Z,37.75
2018-02-22T06:26:16.856Z,43.10
2018-02-22T06:28:45.902Z,38.63
2018-02-22T06:31:14.048Z,45.85
2018-02-22T06:33:42.211Z,38.75
2018-02-22T06:36:10.361Z,36.85
2018-02-22T06:38:39.622Z,41.05
2018-02-22T06:41:07.786Z,36.30
2018-02-22T06:43:35.941Z,36.55
2018-02-22T06:46:04.097Z,39.70
2018-02-22T06:48:32.246Z,39.47
2018-02-22T06:51:00.467Z,42.88
2018-02-22T06:53:28.598Z,36.97
2018-02-22T06:55:57.502Z,39.53
2018-02-22T06:58:25.668Z,33.33
2018-02-22T07:00:54.593Z,46.63
2018-02-22T07:03:22.771Z,41.47
2018-02-22T07:05:50.936Z,37.90
2018-02-22T07:08:19.069Z,36.35
2018-02-22T07:10:47.985Z,44.90
2018-02-22T07:13:16.146Z,47.97
2018-02-22T07:15:45.888Z,38.67
2018-02-22T07:18:14.018Z,38.50
2018-02-22T07:20:42.943Z,32.80
2018-02-22T07:23:16.888Z,39.90
2018-02-22T07:25:39.275Z,42.58
2018-02-22T07:28:07.416Z,39.72
2018-02-22T07:30:36.314Z,35.05
2018-02-22T07:33:05.239Z,42.35
2018-02-22T07:35:34.073Z,33.78
2018-02-22T07:38:02.252Z,39.15
2018-02-22T07:40:30.387Z,46.15
2018-02-22T07:42:58.555Z,36.80
2018-02-22T07:45:26.734Z,40.90
2018-02-22T07:47:55.585Z,34.95
2018-02-22T07:50:24.491Z,44.47
2018-02-22T07:52:52.682Z,43.75
2018-02-22T07:55:20.826Z,38.45
2018-02-22T07:57:48.963Z,45.60
2018-02-22T08:00:17.139Z,41.60
2018-02-22T08:02:45.274Z,37.88
2018-02-22T08:05:13.411Z,38.90
2018-02-22T08:07:41.570Z,37.22
2018-02-22T08:10:10.496Z,39.05
2018-02-22T08:12:38.674Z,38.03
2018-02-22T08:15:06.851Z,37.38
2018-02-22T08:17:35.567Z,41.37
2018-02-22T08:20:03.721Z,39.53
2018-02-22T08:22:31.891Z,35.20
2018-02-22T08:25:00.058Z,31.95
2018-02-22T08:27:28.333Z,35.40
2018-02-22T08:29:56.466Z,36.83
2018-02-22T08:32:25.401Z,32.63
2018-02-22T08:34:53.873Z,34.17
2018-02-22T08:37:22.009Z,35.38
2018-02-22T08:39:50.945Z,40.95
2018-02-22T08:42:19.102Z,41.67
2018-02-22T08:44:47.239Z,32.65
2018-02-22T08:47:16.174Z,34.63
2018-02-22T08:49:44.305Z,37.97
2018-02-22T08:52:13.235Z,35.20
2018-02-22T08:54:41.655Z,30.73
2018-02-22T08:57:09.792Z,46.37
2018-02-22T08:59:37.974Z,45.12
2018-02-22T09:02:06.171Z,39.22
2018-02-22T09:04:34.337Z,31.50
2018-02-22T09:07:02.486Z,38.10
2018-02-22T09:09:31.159Z,37.00
2018-02-22T09:11:59.294Z,31.70
2018-02-22T09:14:28.618Z,32.95
2018-02-22T09:16:56.754Z,32.42
2018-02-22T09:19:25.788Z,31.83
2018-02-22T09:21:54.046Z,33.28
2018-02-22T09:24:22.186Z,34.20
2018-02-22T09:26:50.354Z,24.98
2018-02-22T09:29:18.486Z,21.37
2018-02-22T09:31:46.662Z,26.52
2018-02-22T09:34:14.801Z,27.55
2018-02-22T09:36:43.707Z,30.25
2018-02-22T09:39:11.884Z,30.83
2018-02-22T09:41:40.074Z,31.73
2018-02-22T09:44:08.255Z,26.33
2018-02-22T09:46:36.467Z,24.52
2018-02-22T09:49:05.371Z,22.02
2018-02-22T09:51:33.530Z,28.25
2018-02-22T09:54:02.446Z,28.25
2018-02-22T09:56:30.619Z,21.25
2018-02-22T09:58:58.770Z,24.85
2018-02-22T10:01:27.699Z,27.45
2018-02-22T10:03:55.868Z,24.77
2018-02-22T10:06:24.045Z,26.23
2018-02-22T10:08:52.223Z,34.58
2018-02-22T10:11:20.457Z,23.60
2018-02-22T10:13:49.360Z,29.70
2018-02-22T10:16:17.555Z,21.47
2018-02-22T10:18:45.765Z,23.33
2018-02-22T10:21:13.898Z,30.07
2018-02-22T10:23:42.090Z,25.43
2018-02-22T10:26:10.238Z,23.17
2018-02-22T10:28:38.454Z,27.20
2018-02-22T10:31:06.600Z,24.43
2018-02-22T10:33:34.738Z,27.17
2018-02-22T10:36:02.922Z,19.80
2018-02-22T10:38:31.118Z,22.57
2018-02-22T10:40:59.878Z,26.50
2018-02-22T10:43:28.046Z,28.07
2018-02-22T10:45:56.409Z,25.10
2018-02-22T10:48:25.387Z,20.67
2018-02-22T10:50:54.047Z,25.10
2018-02-22T10:53:22.213Z,28.07
2018-02-22T10:55:50.362Z,27.30
2018-02-22T10:58:18.544Z,31.00
2018-02-22T11:00:52.149Z,23.93
2018-02-22T11:03:20.319Z,24.03
2018-02-22T11:05:48.492Z,34.37
2018-02-22T11:08:16.641Z,26.63
2018-02-22T11:10:44.875Z,26.67
2018-02-22T11:13:13.017Z,23.83
2018-02-22T11:15:41.211Z,26.57
2018-02-22T11:18:09.383Z,19.33
2018-02-22T11:20:37.538Z,27.97
2018-02-22T11:23:05.714Z,24.60
2018-02-22T11:25:33.858Z,26.13
2018-02-22T11:28:02.053Z,23.10
2018-02-22T11:30:30.223Z,17.20
2018-02-22T11:32:58.978Z,18.30
2018-02-22T11:35:27.141Z,19.53
2018-02-22T11:37:56.050Z,19.23
2018-02-22T11:40:24.214Z,21.37
2018-02-22T11:42:52.389Z,81.63
2018-02-22T11:45:20.535Z,19.37
2018-02-22T11:47:48.706Z,19.00
2018-02-22T11:50:17.623Z,15.80
2018-02-22T11:52:46.487Z,17.30
2018-02-22T11:55:14.649Z,12.73
2018-02-22T11:57:42.786Z,15.10
2018-02-22T12:00:10.962Z,16.13
2018-02-22T12:02:39.101Z,18.30
2018-02-22T12:05:07.858Z,17.40
2018-02-22T12:07:36.018Z,16.67
2018-02-22T12:10:04.155Z,16.20
2018-02-22T12:12:32.325Z,15.23
2018-02-22T12:15:00.467Z,13.07
2018-02-22T12:17:29.365Z,16.90
2018-02-22T12:19:57.541Z,16.03
2018-02-22T12:22:25.687Z,16.67
2018-02-22T12:24:54.595Z,17.30
2018-02-22T12:27:24.295Z,16.03
2018-02-22T12:29:53.194Z,19.27
2018-02-22T12:32:22.098Z,20.90
2018-02-22T12:34:50.269Z,32.43
2018-02-22T12:37:18.408Z,22.63
2018-02-22T12:39:46.567Z,22.30
2018-02-22T12:42:14.711Z,24.43
2018-02-22T12:44:43.239Z,26.47
2018-02-22T12:47:11.382Z,18.27
2018-02-22T12:49:39.546Z,24.13
2018-02-22T12:52:07.721Z,20.40
2018-02-22T12:54:35.865Z,19.50
2018-02-22T12:57:04.256Z,16.70
2018-02-22T12:59:32.422Z,16.60
2018-02-22T13:02:00.605Z,22.00
2018-02-22T13:04:28.799Z,21.77
2018-02-22T13:06:56.940Z,19.30
2018-02-22T13:09:25.110Z,14.03
2018-02-22T13:11:53.250Z,15.50
2018-02-22T13:14:22.729Z,15.80
2018-02-22T13:16:50.850Z,19.83
2018-02-22T13:19:19.022Z,24.53
2018-02-22T13:21:47.417Z,20.07
2018-02-22T13:24:15.553Z,19.50
2018-02-22T13:26:44.472Z,22.97
2018-02-22T13:29:12.668Z,23.13
2018-02-22T13:31:40.829Z,23.63
2018-02-22T13:34:31.667Z,20.60
2018-02-22T13:36:59.909Z,20.47
2018-02-22T13:39:28.158Z,20.90
2018-02-22T13:41:56.323Z,19.90
2018-02-22T13:44:43.226Z,24.10
2018-02-22T13:47:12.145Z,19.70
2018-02-22T13:49:58.274Z,21.03
2018-02-22T13:52:26.470Z,20.73
2018-02-22T13:54:54.571Z,20.93
2018-02-22T13:57:22.772Z,30.43
2018-02-22T13:59:50.914Z,20.37
2018-02-22T14:02:26.805Z,24.27
2018-02-22T14:04:54.940Z,17.00
2018-02-22T14:07:23.078Z,19.87
2018-02-22T14:09:51.377Z,17.57
2018-02-22T14:12:20.278Z,16.87
2018-02-22T14:14:48.487Z,21.17
2018-02-22T14:17:16.689Z,23.60
2018-02-22T14:19:44.826Z,27.37
2018-02-22T14:22:12.961Z,22.50
2018-02-22T14:24:41.910Z,30.00
2018-02-22T14:27:20.042Z,26.03
2018-02-22T14:29:48.315Z,22.20
2018-02-22T14:32:17.349Z,35.70
2018-02-22T14:34:45.507Z,25.37
2018-02-22T14:37:13.647Z,29.70
2018-02-22T14:39:42.092Z,39.67
2018-02-22T14:42:10.782Z,22.63
2018-02-22T14:44:39.430Z,22.03
2018-02-22T14:47:07.862Z,14.97
2018-02-22T14:49:36.798Z,16.40
2018-02-22T14:52:04.966Z,13.93
2018-02-22T14:54:33.164Z,13.50
2018-02-22T14:57:01.331Z,16.03
2018-02-22T14:59:29.496Z,13.33
2018-02-22T15:01:57.686Z,14.33
2018-02-22T15:04:25.826Z,18.65
2018-02-22T15:06:54.068Z,17.87
2018-02-22T15:09:22.213Z,16.30
2018-02-22T15:11:50.389Z,15.57
2018-02-22T15:14:18.533Z,16.80
2018-02-22T15:16:46.669Z,48.75
2018-02-22T15:19:14.897Z,31.90
2018-02-22T15:21:43.431Z,41.85
2018-02-22T15:24:12.541Z,23.75
2018-02-22T15:26:41.502Z,27.70
2018-02-22T15:29:10.418Z,47.10
2018-02-22T15:31:39.379Z,40.65
2018-02-22T15:34:07.527Z,36.42
2018-02-22T15:36:35.706Z,25.58
2018-02-22T15:39:03.850Z,27.20
2018-02-22T15:41:31.999Z,32.25
2018-02-22T15:51:00.275Z,15.82
2018-02-22T15:53:28.438Z,19.02
2018-02-22T15:55:56.574Z,17.33
2018-02-22T15:58:24.799Z,15.68
2018-02-22T16:00:53.046Z,22.83
2018-02-22T16:03:21.195Z,23.50
2018-02-22T16:05:49.382Z,24.40
2018-02-22T16:08:17.517Z,18.70
2018-02-22T16:10:45.754Z,23.40
2018-02-22T16:13:14.101Z,16.35
2018-02-22T16:15:42.962Z,18.55
2018-02-22T16:18:11.952Z,19.25
2018-02-22T16:20:40.118Z,16.20
2018-02-22T16:23:08.278Z,18.67
2018-02-22T16:25:36.406Z,16.00
2018-02-22T16:28:04.587Z,18.27
2018-02-22T16:30:32.734Z,21.37
2018-02-22T16:33:01.694Z,19.17
2018-02-22T16:35:29.859Z,18.20
2018-02-22T16:37:58.118Z,21.20
2018-02-22T16:40:26.345Z,22.02
2018-02-22T16:42:55.246Z,19.02
2018-02-22T16:45:23.442Z,19.50
2018-02-22T16:47:51.626Z,17.70
2018-02-22T16:50:19.769Z,18.92
2018-02-22T16:52:48.231Z,21.73
2018-02-22T16:55:16.541Z,21.50
2018-02-22T16:57:45.142Z,21.52
2018-02-22T17:00:13.316Z,16.35
2018-02-22T17:02:41.557Z,20.70
2018-02-22T17:05:10.734Z,21.87
2018-02-22T17:07:39.108Z,22.37
2018-02-22T17:10:08.146Z,27.87
2018-02-22T17:12:36.448Z,19.33
2018-02-22T17:15:04.585Z,18.35
2018-02-22T17:17:45.761Z,20.48
2018-02-22T17:20:13.909Z,15.43
2018-02-22T17:22:42.081Z,15.85
2018-02-22T17:25:10.230Z,17.85
2018-02-22T17:27:44.014Z,16.75
2018-02-22T17:30:18.050Z,23.33
2018-02-22T17:32:46.973Z,17.75
2018-02-22T17:35:16.865Z,20.42
2018-02-22T17:37:46.558Z,20.10
2018-02-22T17:40:14.833Z,17.05
2018-02-22T17:42:58.753Z,16.95
2018-02-22T17:45:26.911Z,17.00
2018-02-22T17:47:55.072Z,15.57
2018-02-22T17:50:23.254Z,19.73
2018-02-22T17:52:51.402Z,16.48
2018-02-22T17:55:19.573Z,22.73
2018-02-22T17:57:47.734Z,20.80
2018-02-22T18:00:15.875Z,18.60
2018-02-22T18:02:44.525Z,16.67
2018-02-22T18:05:12.678Z,20.85
2018-02-22T18:07:40.872Z,14.23
2018-02-22T18:10:09.033Z,15.07
2018-02-22T18:12:37.250Z,14.70
2018-02-22T18:15:05.389Z,21.33
2018-02-22T18:17:33.991Z,25.27
2018-02-22T18:20:02.594Z,17.25
2018-02-22T18:22:30.758Z,15.65
2018-02-22T18:24:58.887Z,18.45
2018-02-22T18:27:27.048Z,15.27
2018-02-22T18:29:55.227Z,17.42
2018-02-22T18:32:23.421Z,19.40
2018-02-22T18:34:51.559Z,15.23
2018-02-22T18:37:25.226Z,14.87
2018-02-22T18:39:53.382Z,16.15
2018-02-22T18:42:21.549Z,18.95
2018-02-22T18:44:55.181Z,15.48
2018-02-22T18:47:23.326Z,17.00
2018-02-22T18:49:51.489Z,16.02
2018-02-22T18:52:19.639Z,13.20
2018-02-22T18:54:47.889Z,16.10
2018-02-22T18:57:16.005Z,14.85
2018-02-22T18:59:44.734Z,15.10
2018-02-22T19:02:13.658Z,18.12
2018-02-22T19:04:41.790Z,14.00
2018-02-22T19:07:09.946Z,14.32
2018-02-22T19:09:38.086Z,14.98
2018-02-22T19:12:07.195Z,17.02
2018-02-22T19:14:35.331Z,15.85
2018-02-22T19:20:02.139Z,15.73
2018-02-22T19:22:30.334Z,13.50
2018-02-22T19:24:58.561Z,16.08
2018-02-22T19:27:26.842Z,16.67
2018-02-22T19:29:54.996Z,14.65
2018-02-22T19:32:23.129Z,14.93
2018-02-22T19:34:51.308Z,22.75
2018-02-22T19:37:20.214Z,50.25
2018-02-22T19:39:49.234Z,19.65
2018-02-22T19:42:17.412Z,17.87
2018-02-22T19:44:45.547Z,14.30
2018-02-22T19:47:15.031Z,16.37
2018-02-22T19:49:43.197Z,14.87
2018-02-22T19:52:11.329Z,16.10
2018-02-22T19:54:39.498Z,15.75
2018-02-22T19:57:08.055Z,17.62
2018-02-22T19:59:36.968Z,14.10
2018-02-22T20:02:05.108Z,24.52
2018-02-22T20:04:34.053Z,31.45
2018-02-22T20:07:02.200Z,54.10
2018-02-22T20:09:30.385Z,64.55
2018-02-22T20:11:58.543Z,40.22
2018-02-22T20:14:26.690Z,30.90
2018-02-22T20:16:55.628Z,24.20
2018-02-22T20:19:23.762Z,21.92
2018-02-22T20:21:52.668Z,22.00
2018-02-22T20:24:20.821Z,29.98
2018-02-22T20:26:49.743Z,38.65
2018-02-22T20:29:17.979Z,45.55
2018-02-22T20:31:46.885Z,31.83
2018-02-22T20:34:15.027Z,31.85
2018-02-22T20:36:43.194Z,25.12
2018-02-22T20:39:11.334Z,21.40
2018-02-22T20:41:39.495Z,24.02
2018-02-22T20:44:07.643Z,20.70
2018-02-22T20:46:35.787Z,16.58
2018-02-22T20:49:04.017Z,18.52
2018-02-22T20:51:36.741Z,19.45
2018-02-22T20:54:04.896Z,16.90
2018-02-22T20:56:33.025Z,23.38
2018-02-22T20:59:01.191Z,18.55
2018-02-22T21:01:29.326Z,21.33
2018-02-22T21:03:57.476Z,17.10
2018-02-22T21:06:25.646Z,17.15
2018-02-22T21:08:53.792Z,16.37
2018-02-22T21:11:21.931Z,19.48
2018-02-22T21:13:50.962Z,22.05
2018-02-22T21:16:19.125Z,25.98
2018-02-22T21:18:47.498Z,28.05
2018-02-22T21:21:16.559Z,25.40
2018-02-22T21:23:44.735Z,25.40
2018-02-22T21:26:13.247Z,31.70
2018-02-22T21:28:41.401Z,18.55
2018-02-22T21:31:10.334Z,16.67
2018-02-22T21:33:38.509Z,19.40
2018-02-22T21:36:06.647Z,26.75
2018-02-22T21:38:34.879Z,26.17
2018-02-22T21:41:03.120Z,21.87
2018-02-22T21:43:31.346Z,25.10
2018-02-22T21:45:59.475Z,18.80
2018-02-22T21:48:27.625Z,20.65
2018-02-22T21:50:55.911Z,20.80
2018-02-22T21:53:24.090Z,21.77
2018-02-22T21:55:52.225Z,20.62
2018-02-22T21:58:21.171Z,23.75
2018-02-22T22:00:49.319Z,25.98
2018-02-22T22:03:17.498Z,27.98
2018-02-22T22:05:45.670Z,21.50
2018-02-22T22:08:13.796Z,23.08
2018-02-22T22:10:42.962Z,24.58
2018-02-22T22:13:11.726Z,23.67
2018-02-22T22:15:39.858Z,26.25
2018-02-22T22:18:08.786Z,23.67
2018-02-22T22:20:36.941Z,25.83
2018-02-22T22:23:05.106Z,20.65
2018-02-22T22:25:33.279Z,23.65
2018-02-22T22:28:01.428Z,26.55
2018-02-22T22:30:30.370Z,24.55
2018-02-22T22:32:58.501Z,24.98
2018-02-22T22:35:27.407Z,23.40
2018-02-22T22:37:55.643Z,19.00
2018-02-22T22:40:23.774Z,21.42
2018-02-22T22:42:51.917Z,18.55
2018-02-22T22:45:20.855Z,18.77
2018-02-22T22:47:49.067Z,15.00
2018-02-22T22:50:17.978Z,16.83
2018-02-22T22:52:46.206Z,20.60
2018-02-22T22:55:14.350Z,18.50
2018-02-22T22:57:42.485Z,19.20
2018-02-22T23:00:11.427Z,21.30
2018-02-22T23:02:39.583Z,19.67
2018-02-22T23:05:07.718Z,19.40
2018-02-22T23:07:36.650Z,18.42
2018-02-22T23:10:04.821Z,17.35
2018-02-22T23:12:32.951Z,17.52
2018-02-22T23:15:02.600Z,20.25
2018-02-22T23:17:30.742Z,20.52
2018-02-22T23:19:59.647Z,17.48
2018-02-22T23:22:27.818Z,18.40
2018-02-22T23:24:56.015Z,17.33
2018-02-22T23:27:24.146Z,22.45
2018-02-22T23:29:53.083Z,19.48
2018-02-22T23:32:21.226Z,21.75
2018-02-22T23:34:49.357Z,21.45
2018-02-22T23:37:17.510Z,21.20
2018-02-22T23:39:45.645Z,21.15
2018-02-22T23:42:25.561Z,22.30
2018-02-22T23:44:54.462Z,22.17
2018-02-22T23:47:23.766Z,22.23
2018-02-22T23:49:52.771Z,21.35
2018-02-22T23:52:20.922Z,23.85
2018-02-22T23:54:49.834Z,20.88
2018-02-22T23:57:18.014Z,20.75
2018-02-22T23:59:46.150Z,19.25
